KHCR

Heber City Municipal - Russ McDonald Field Airport

Heber, Utah, USA
METAR KHCR 280115Z AUTO 26008KT 10SM CLR 15/05 A3001 RMK AO2
Observed Flight Rules
May-28 @ 01:15 UTC (13 minutes ago) Visual Flight Rules
Wind Visibility Clouds
260° at 8 knots 10 miles
  • Clear skies
Temperatures Readings
Current 15°C / 59°F
Dewpoint 5°C / 41°F
Humidity 51%
Altimeter 30.01" Hg
Pressure 1016 hPa
Elevation 1706
METAR KHCR 280115Z AUTO 26008KT 10SM CLR 15/05 A3001 RMK AO2
Observed Flight Rules
May-28 @ 01:15 UTC
(13 minutes ago)
VFR
Wind Visibility
260° at 8 knots 10 miles
Clouds
  • Clear skies
Temperature Dewpoint
15°C / 59°F 5°C / 41°F
Humidity Altimeter Pressure
51% 30.01" Hg 1016 hPa